createdAt,value
2022-08-08T00:00:52.669Z,15.05
2022-08-08T00:02:31.171Z,14.98
2022-08-08T00:04:49.498Z,14.93
2022-08-08T00:07:13.989Z,14.92
2022-08-08T00:09:32.995Z,14.88
2022-08-08T00:12:06.847Z,14.82
2022-08-08T00:14:48.218Z,14.80
2022-08-08T00:17:05.249Z,14.77
2022-08-08T00:19:40.329Z,14.73
2022-08-08T00:22:03.723Z,14.67
2022-08-08T00:24:24.128Z,14.63
2022-08-08T00:26:47.471Z,14.56
2022-08-08T00:29:07.862Z,14.52
2022-08-08T00:32:21.338Z,14.49
2022-08-08T00:34:18.811Z,14.44
2022-08-08T00:36:37.006Z,14.38
2022-08-08T00:39:00.221Z,14.41
2022-08-08T00:41:17.155Z,14.40
2022-08-08T00:43:40.540Z,14.32
2022-08-08T00:45:58.375Z,14.30
2022-08-08T00:48:29.887Z,14.28
2022-08-08T00:50:52.458Z,14.27
2022-08-08T00:53:15.553Z,14.24
2022-08-08T00:55:35.945Z,14.23
2022-08-08T00:58:13.608Z,14.18
2022-08-08T01:00:35.912Z,14.15
2022-08-08T01:04:00.165Z,14.06
2022-08-08T01:05:58.307Z,14.09
2022-08-08T01:08:09.462Z,14.12
2022-08-08T01:10:27.513Z,14.15
2022-08-08T01:12:44.789Z,14.11
2022-08-08T01:15:02.079Z,14.08
2022-08-08T01:17:35.019Z,14.02
2022-08-08T01:20:02.589Z,14.01
2022-08-08T01:22:23.102Z,13.94
2022-08-08T01:24:41.165Z,13.94
2022-08-08T01:27:00.692Z,13.92
2022-08-08T01:29:17.960Z,13.86
2022-08-08T01:32:06.620Z,13.80
2022-08-08T01:34:20.314Z,13.75
2022-08-08T01:36:37.875Z,13.72
2022-08-08T01:38:57.408Z,13.69
2022-08-08T01:41:15.962Z,13.62
2022-08-08T01:43:34.815Z,13.61
2022-08-08T01:45:56.521Z,13.59
2022-08-08T01:48:23.315Z,13.55
2022-08-08T01:50:48.819Z,13.52
2022-08-08T01:55:17.413Z,13.48
2022-08-08T01:56:28.109Z,13.45
2022-08-08T01:58:38.297Z,13.42
2022-08-08T02:00:58.174Z,13.41
2022-08-08T02:03:56.090Z,13.39
2022-08-08T02:05:56.161Z,13.34
2022-08-08T02:08:15.944Z,13.31
2022-08-08T02:10:41.587Z,13.33
2022-08-08T02:13:02.500Z,13.31
2022-08-08T02:15:20.523Z,13.27
2022-08-08T02:17:42.930Z,13.25
2022-08-08T02:20:09.541Z,13.23
2022-08-08T02:22:33.661Z,13.16
2022-08-08T02:24:51.947Z,13.20
2022-08-08T02:27:09.727Z,13.19
2022-08-08T02:29:41.417Z,13.18
2022-08-08T02:32:01.095Z,13.14
2022-08-08T02:34:32.897Z,13.15
2022-08-08T02:36:50.471Z,13.17
2022-08-08T02:39:41.820Z,13.10
2022-08-08T02:42:03.636Z,13.16
2022-08-08T02:44:35.717Z,13.07
2022-08-08T02:46:58.414Z,13.01
2022-08-08T02:49:18.787Z,12.98
2022-08-08T02:51:59.058Z,12.98
2022-08-08T02:54:18.231Z,12.91
2022-08-08T02:56:35.567Z,12.85
2022-08-08T02:58:52.853Z,12.85
2022-08-08T03:01:14.918Z,12.82
2022-08-08T03:05:00.355Z,12.82
2022-08-08T03:06:09.162Z,12.87
2022-08-08T03:08:27.421Z,12.89
2022-08-08T03:10:53.412Z,12.84
2022-08-08T03:13:33.909Z,12.74
2022-08-08T03:15:56.207Z,12.68
2022-08-08T03:18:31.348Z,12.63
2022-08-08T03:20:51.649Z,12.63
2022-08-08T03:23:09.025Z,12.58
2022-08-08T03:25:35.970Z,12.52
2022-08-08T03:27:57.080Z,12.57
2022-08-08T03:30:15.265Z,12.58
2022-08-08T03:32:36.142Z,12.52
2022-08-08T03:34:58.888Z,12.50
2022-08-08T03:38:00.058Z,12.48
2022-08-08T03:40:00.446Z,12.40
2022-08-08T03:42:28.040Z,12.42
2022-08-08T03:44:52.011Z,12.37
2022-08-08T03:47:19.455Z,12.35
2022-08-08T03:50:00.613Z,12.35
2022-08-08T03:52:14.466Z,12.33
2022-08-08T03:54:41.801Z,12.32
2022-08-08T03:58:31.567Z,12.30
2022-08-08T03:59:57.336Z,12.24
2022-08-08T04:02:33.141Z,12.17
2022-08-08T04:05:00.947Z,12.19
2022-08-08T04:07:21.341Z,12.20
2022-08-08T04:09:57.457Z,12.17
2022-08-08T04:12:16.114Z,12.19
2022-08-08T04:14:36.366Z,12.32
2022-08-08T04:16:53.640Z,12.28
2022-08-08T04:19:23.427Z,12.28
2022-08-08T04:21:45.765Z,12.28
2022-08-08T04:24:19.322Z,12.23
2022-08-08T04:26:57.490Z,12.24
2022-08-08T04:29:15.617Z,12.29
2022-08-08T04:31:59.292Z,12.22
2022-08-08T04:34:10.606Z,12.18
2022-08-08T04:36:27.774Z,12.24
2022-08-08T04:38:57.218Z,12.16
2022-08-08T04:41:25.177Z,12.13
2022-08-08T04:43:57.211Z,12.11
2022-08-08T04:46:15.011Z,12.09
2022-08-08T04:48:32.330Z,12.07
2022-08-08T04:50:50.273Z,12.10
2022-08-08T04:53:52.135Z,12.10
2022-08-08T04:55:55.515Z,12.10
2022-08-08T04:58:14.045Z,12.11
2022-08-08T05:00:34.901Z,12.11
2022-08-08T05:02:53.181Z,12.11
2022-08-08T05:05:16.262Z,12.11
2022-08-08T05:07:41.937Z,12.15
2022-08-08T05:09:59.698Z,12.12
2022-08-08T05:12:34.908Z,12.15
2022-08-08T05:14:54.480Z,12.19
2022-08-08T05:17:11.724Z,12.29
2022-08-08T05:20:10.417Z,12.33
2022-08-08T05:22:05.726Z,12.38
2022-08-08T05:24:26.185Z,12.41
2022-08-08T05:26:43.576Z,12.45
2022-08-08T05:29:06.071Z,12.50
2022-08-08T05:32:02.324Z,12.52
2022-08-08T05:34:03.501Z,12.59
2022-08-08T05:36:25.127Z,12.68
2022-08-08T05:38:46.165Z,12.70
2022-08-08T05:41:03.426Z,12.73
2022-08-08T05:43:39.534Z,12.80
2022-08-08T05:46:03.890Z,12.90
2022-08-08T05:48:28.677Z,13.04
2022-08-08T05:50:48.248Z,13.19
2022-08-08T05:53:54.220Z,13.39
2022-08-08T05:56:10.655Z,13.53
2022-08-08T05:58:32.635Z,13.71
2022-08-08T06:00:56.887Z,13.84
2022-08-08T06:03:17.405Z,13.99
2022-08-08T06:05:42.077Z,14.17
2022-08-08T06:08:02.552Z,14.38
2022-08-08T06:10:26.263Z,14.53
2022-08-08T06:12:44.894Z,14.68
2022-08-08T06:15:06.539Z,14.81
2022-08-08T06:17:50.497Z,14.93
2022-08-08T06:20:01.144Z,15.05
2022-08-08T06:22:35.403Z,15.17
2022-08-08T06:24:53.585Z,15.37
2022-08-08T06:27:10.697Z,15.59
2022-08-08T06:30:00.536Z,15.73
2022-08-08T06:32:11.510Z,15.92
2022-08-08T06:34:32.415Z,15.97
2022-08-08T06:36:53.576Z,16.12
2022-08-08T06:39:11.172Z,16.24
2022-08-08T06:41:29.729Z,16.36
2022-08-08T06:43:57.419Z,16.51
2022-08-08T06:46:16.235Z,16.73
2022-08-08T06:48:33.442Z,16.86
2022-08-08T06:50:52.108Z,17.05
2022-08-08T06:53:17.304Z,17.24
2022-08-08T06:55:41.600Z,17.57
2022-08-08T06:58:03.620Z,17.72
2022-08-08T07:00:30.636Z,17.85
2022-08-08T07:02:48.066Z,18.07
2022-08-08T07:05:07.073Z,18.19
2022-08-08T07:07:29.676Z,18.45
2022-08-08T07:09:59.175Z,18.65
2022-08-08T07:12:17.325Z,18.64
2022-08-08T07:14:35.007Z,18.76
2022-08-08T07:16:54.366Z,18.91
2022-08-08T07:19:11.564Z,19.04
2022-08-08T07:21:31.163Z,19.14
2022-08-08T07:24:01.751Z,19.31
2022-08-08T07:26:28.819Z,19.46
2022-08-08T07:28:50.083Z,19.58
2022-08-08T07:31:13.362Z,19.73
2022-08-08T07:33:37.675Z,19.89
2022-08-08T07:35:55.254Z,20.00
2022-08-08T07:38:21.079Z,20.09
2022-08-08T07:40:43.121Z,20.21
2022-08-08T07:43:00.519Z,20.42
2022-08-08T07:45:18.994Z,20.51
2022-08-08T07:47:38.588Z,20.61
2022-08-08T07:49:58.523Z,20.78
2022-08-08T07:52:23.153Z,20.85
2022-08-08T07:54:43.740Z,20.98
2022-08-08T07:57:02.030Z,21.17
2022-08-08T07:59:20.109Z,21.32
2022-08-08T08:02:35.398Z,21.49
2022-08-08T08:04:14.421Z,21.77
2022-08-08T08:06:33.392Z,21.86
2022-08-08T08:08:55.668Z,21.94
2022-08-08T08:11:16.170Z,21.97
2022-08-08T08:13:42.646Z,22.27
2022-08-08T08:16:17.030Z,22.23
2022-08-08T08:18:40.718Z,22.37
2022-08-08T08:21:18.567Z,22.60
2022-08-08T08:23:40.893Z,22.66
2022-08-08T08:25:58.627Z,22.71
2022-08-08T08:28:23.615Z,22.79
2022-08-08T08:30:41.548Z,22.94
2022-08-08T08:33:02.677Z,23.15
2022-08-08T08:35:21.635Z,23.20
2022-08-08T08:38:13.057Z,23.25
2022-08-08T08:40:24.149Z,23.36
2022-08-08T08:42:42.351Z,23.55
2022-08-08T08:44:59.409Z,23.76
2022-08-08T08:47:18.092Z,23.96
2022-08-08T08:49:35.423Z,24.06
2022-08-08T08:52:00.480Z,24.10
2022-08-08T08:54:17.653Z,24.22
2022-08-08T08:56:42.540Z,24.51
2022-08-08T08:59:03.320Z,24.60
2022-08-08T09:01:22.648Z,24.76
2022-08-08T09:03:46.613Z,24.88
2022-08-08T09:06:04.317Z,24.93
2022-08-08T09:08:41.559Z,24.94
2022-08-08T09:11:06.944Z,24.95
2022-08-08T09:13:28.261Z,25.09
2022-08-08T09:15:45.365Z,25.30
2022-08-08T09:18:05.846Z,25.63
2022-08-08T09:21:57.639Z,25.71
2022-08-08T09:23:00.082Z,25.72
2022-08-08T09:25:17.340Z,25.84
2022-08-08T09:27:56.670Z,25.71
2022-08-08T09:30:17.577Z,25.51
2022-08-08T09:32:36.776Z,25.60
2022-08-08T09:34:55.094Z,25.79
2022-08-08T09:37:57.380Z,26.18
2022-08-08T09:39:49.425Z,26.16
2022-08-08T09:42:20.764Z,26.09
2022-08-08T09:44:38.971Z,26.10
2022-08-08T09:47:05.019Z,26.23
2022-08-08T09:49:42.459Z,26.18
2022-08-08T09:52:07.228Z,26.43
2022-08-08T09:54:37.302Z,26.49
2022-08-08T09:56:55.146Z,26.51
2022-08-08T09:59:50.330Z,26.50
2022-08-08T10:02:02.885Z,26.59
2022-08-08T10:04:38.488Z,26.71
2022-08-08T10:06:59.936Z,26.66
2022-08-08T10:09:17.190Z,26.41
2022-08-08T10:12:25.948Z,26.64
2022-08-08T10:14:28.030Z,26.72
2022-08-08T10:16:52.375Z,27.05
2022-08-08T10:19:10.483Z,27.19
2022-08-08T10:21:33.099Z,27.32
2022-08-08T10:23:59.810Z,27.43
2022-08-08T10:26:30.291Z,27.52
2022-08-08T10:28:53.677Z,27.68
2022-08-08T10:31:11.528Z,27.63
2022-08-08T10:33:37.928Z,27.84
2022-08-08T10:36:08.287Z,27.90
2022-08-08T10:38:38.199Z,27.98
2022-08-08T10:40:57.736Z,28.07
2022-08-08T10:43:15.644Z,28.19
2022-08-08T10:45:41.233Z,28.11
2022-08-08T10:47:59.859Z,28.19
2022-08-08T10:50:17.926Z,28.04
2022-08-08T10:52:35.070Z,28.21
2022-08-08T10:54:52.372Z,28.31
2022-08-08T10:57:09.406Z,28.43
2022-08-08T10:59:30.923Z,28.41
2022-08-08T11:01:54.425Z,28.51
2022-08-08T11:04:12.140Z,28.77
2022-08-08T11:06:35.024Z,29.04
2022-08-08T11:08:53.673Z,29.10
2022-08-08T11:11:32.844Z,28.99
2022-08-08T11:13:52.044Z,29.02
2022-08-08T11:16:33.172Z,28.98
2022-08-08T11:18:51.523Z,29.14
2022-08-08T11:21:08.951Z,29.02
2022-08-08T11:23:31.293Z,29.12
2022-08-08T11:25:55.369Z,28.93
2022-08-08T11:28:14.300Z,29.18
2022-08-08T11:30:31.993Z,29.38
2022-08-08T11:32:50.257Z,29.45
2022-08-08T11:35:27.114Z,29.58
2022-08-08T11:38:35.632Z,29.69
2022-08-08T11:40:26.966Z,29.84
2022-08-08T11:42:51.177Z,29.76
2022-08-08T11:45:09.340Z,29.90
2022-08-08T11:47:39.808Z,30.14
2022-08-08T11:50:04.241Z,30.01
2022-08-08T11:52:31.861Z,30.10
2022-08-08T11:54:49.162Z,30.18
2022-08-08T11:57:06.553Z,30.42
2022-08-08T11:59:58.851Z,30.59
2022-08-08T12:02:31.230Z,30.45
2022-08-08T12:04:47.893Z,30.25
2022-08-08T12:07:16.847Z,30.34
2022-08-08T12:09:56.637Z,30.51
2022-08-08T12:12:14.440Z,30.49
2022-08-08T12:14:34.421Z,30.58
2022-08-08T12:16:54.223Z,30.43
2022-08-08T12:19:11.323Z,30.47
2022-08-08T12:21:59.669Z,30.57
2022-08-08T12:24:06.160Z,30.70
2022-08-08T12:26:35.796Z,31.12
2022-08-08T12:28:53.642Z,31.11
2022-08-08T12:31:11.583Z,30.85
2022-08-08T12:33:37.823Z,30.44
2022-08-08T12:36:09.501Z,30.51
2022-08-08T12:38:30.549Z,30.51
2022-08-08T12:40:57.267Z,30.62
2022-08-08T12:43:16.372Z,30.70
2022-08-08T12:45:58.874Z,30.99
2022-08-08T12:48:37.694Z,31.30
2022-08-08T12:50:51.557Z,31.31
2022-08-08T12:53:08.900Z,31.12
2022-08-08T12:55:35.446Z,31.12
2022-08-08T12:58:04.265Z,30.99
2022-08-08T13:00:23.830Z,31.18
2022-08-08T13:02:52.584Z,31.37
2022-08-08T13:05:15.547Z,31.03
2022-08-08T13:08:04.234Z,30.95
2022-08-08T13:10:20.220Z,31.07
2022-08-08T13:12:47.113Z,31.38
2022-08-08T13:15:05.565Z,31.49
2022-08-08T13:18:08.594Z,31.79
2022-08-08T13:20:04.064Z,31.19
2022-08-08T13:22:26.453Z,31.14
2022-08-08T13:24:48.735Z,31.37
2022-08-08T13:27:10.828Z,31.38
2022-08-08T13:29:29.918Z,31.18
2022-08-08T13:31:57.405Z,31.32
2022-08-08T13:34:14.344Z,31.26
2022-08-08T13:36:38.479Z,31.43
2022-08-08T13:39:00.138Z,31.71
2022-08-08T13:41:18.692Z,31.83
2022-08-08T13:43:39.193Z,31.87
2022-08-08T13:45:57.006Z,32.05
2022-08-08T13:48:17.267Z,32.10
2022-08-08T13:50:48.943Z,31.93
2022-08-08T13:53:22.738Z,31.37
2022-08-08T13:55:43.427Z,31.57
2022-08-08T13:58:07.825Z,31.63
2022-08-08T14:00:28.785Z,31.69
2022-08-08T14:02:46.160Z,31.29
2022-08-08T14:05:04.794Z,31.54
2022-08-08T14:07:29.873Z,31.65
2022-08-08T14:10:04.506Z,31.76
2022-08-08T14:12:24.581Z,31.80
2022-08-08T14:14:43.330Z,31.88
2022-08-08T14:17:01.159Z,31.85
2022-08-08T14:19:29.372Z,32.06
2022-08-08T14:21:56.162Z,31.93
2022-08-08T14:24:16.008Z,31.75
2022-08-08T14:26:33.575Z,31.70
2022-08-08T14:28:51.551Z,31.56
2022-08-08T14:31:09.286Z,31.54
2022-08-08T14:33:26.901Z,31.59
2022-08-08T14:35:53.498Z,31.68
2022-08-08T14:38:34.825Z,31.91
2022-08-08T14:40:48.075Z,31.76
2022-08-08T14:43:31.328Z,31.66
2022-08-08T14:46:01.574Z,31.62
2022-08-08T14:48:27.483Z,31.69
2022-08-08T14:50:52.336Z,31.74
2022-08-08T14:53:14.320Z,31.52
2022-08-08T14:55:41.278Z,31.45
2022-08-08T14:58:06.296Z,31.45
2022-08-08T15:00:28.820Z,31.64
2022-08-08T15:02:59.067Z,31.23
2022-08-08T15:05:42.583Z,31.42
2022-08-08T15:08:03.343Z,31.46
2022-08-08T15:10:23.132Z,31.50
2022-08-08T15:12:48.027Z,31.58
2022-08-08T15:15:09.451Z,31.72
2022-08-08T15:17:27.228Z,31.75
2022-08-08T15:19:44.330Z,31.59
2022-08-08T15:22:06.069Z,31.59
2022-08-08T15:24:23.176Z,31.73
2022-08-08T15:26:52.979Z,31.93
2022-08-08T15:29:10.358Z,32.01
2022-08-08T15:32:17.689Z,31.91
2022-08-08T15:34:04.688Z,31.69
2022-08-08T15:36:21.670Z,31.70
2022-08-08T15:38:50.240Z,31.59
2022-08-08T15:41:07.988Z,31.42
2022-08-08T15:43:35.706Z,31.49
2022-08-08T15:45:54.083Z,31.58
2022-08-08T15:48:15.975Z,31.75
2022-08-08T15:50:33.575Z,31.19
2022-08-08T15:52:51.015Z,31.26
2022-08-08T15:55:08.978Z,30.95
2022-08-08T15:57:26.923Z,31.02
2022-08-08T16:00:26.331Z,31.19
2022-08-08T16:02:30.738Z,30.98
2022-08-08T16:04:53.583Z,31.03
2022-08-08T16:07:15.909Z,30.77
2022-08-08T16:13:03.456Z,30.93
2022-08-08T16:13:21.035Z,30.93
2022-08-08T16:14:53.649Z,30.88
2022-08-08T16:17:15.031Z,30.91
2022-08-08T16:19:57.256Z,31.06
2022-08-08T16:22:30.000Z,31.02
2022-08-08T16:24:56.777Z,30.92
2022-08-08T16:27:17.939Z,31.11
2022-08-08T16:29:37.434Z,31.02
2022-08-08T16:32:13.536Z,30.86
2022-08-08T16:34:40.844Z,30.81
2022-08-08T16:36:57.885Z,30.81
2022-08-08T16:39:28.458Z,30.79
2022-08-08T16:41:53.164Z,30.71
2022-08-08T16:44:13.814Z,30.64
2022-08-08T16:46:42.842Z,30.46
2022-08-08T16:49:03.167Z,30.31
2022-08-08T16:55:00.262Z,30.21
2022-08-08T16:55:04.482Z,30.23
2022-08-08T16:56:36.780Z,30.13
2022-08-08T16:59:14.533Z,30.01
2022-08-08T17:01:39.426Z,30.00
2022-08-08T17:03:59.415Z,29.97
2022-08-08T17:06:37.628Z,30.01
2022-08-08T17:08:55.535Z,30.21
2022-08-08T17:11:13.983Z,29.94
2022-08-08T17:13:49.715Z,29.78
2022-08-08T17:16:07.567Z,29.72
2022-08-08T17:18:32.601Z,29.64
2022-08-08T17:20:49.706Z,29.56
2022-08-08T17:23:17.884Z,29.56
2022-08-08T17:25:53.502Z,29.49
2022-08-08T17:28:14.816Z,29.39
2022-08-08T17:30:34.797Z,29.27
2022-08-08T17:33:43.937Z,29.21
2022-08-08T17:35:54.851Z,29.14
2022-08-08T17:38:07.328Z,29.15
2022-08-08T17:40:24.429Z,29.09
2022-08-08T17:42:46.979Z,28.97
2022-08-08T17:45:07.900Z,28.87
2022-08-08T17:47:41.508Z,28.75
2022-08-08T17:50:00.943Z,28.69
2022-08-08T17:52:20.004Z,28.63
2022-08-08T17:54:40.396Z,28.52
2022-08-08T17:57:04.552Z,28.38
2022-08-08T17:59:34.727Z,28.23
2022-08-08T18:01:54.130Z,28.13
2022-08-08T18:04:12.141Z,27.93
2022-08-08T18:06:42.872Z,27.74
2022-08-08T18:09:00.310Z,27.63
2022-08-08T18:11:20.566Z,27.51
2022-08-08T18:13:42.081Z,27.46
2022-08-08T18:15:59.935Z,27.29
2022-08-08T18:18:29.474Z,27.03
2022-08-08T18:20:59.328Z,26.90
2022-08-08T18:23:17.382Z,26.71
2022-08-08T18:25:39.672Z,26.59
2022-08-08T18:27:58.715Z,26.28
2022-08-08T18:30:18.169Z,26.07
2022-08-08T18:32:35.166Z,25.94
2022-08-08T18:34:59.504Z,25.74
2022-08-08T18:37:17.695Z,25.66
2022-08-08T18:39:55.343Z,25.45
2022-08-08T18:42:15.788Z,25.27
2022-08-08T18:44:35.878Z,25.12
2022-08-08T18:46:57.786Z,25.00
2022-08-08T18:49:15.496Z,24.96
2022-08-08T18:51:54.250Z,24.78
2022-08-08T18:54:24.777Z,24.71
2022-08-08T18:56:47.171Z,24.54
2022-08-08T18:59:06.666Z,24.48
2022-08-08T19:02:25.346Z,24.30
2022-08-08T19:04:10.412Z,24.25
2022-08-08T19:06:28.938Z,24.18
2022-08-08T19:08:46.266Z,24.06
2022-08-08T19:11:06.274Z,23.95
2022-08-08T19:13:47.268Z,23.87
2022-08-08T19:16:04.084Z,23.72
2022-08-08T19:18:33.557Z,23.62
2022-08-08T19:21:00.821Z,23.53
2022-08-08T19:23:18.761Z,23.40
2022-08-08T19:26:01.921Z,23.38
2022-08-08T19:28:19.550Z,23.29
2022-08-08T19:30:37.453Z,23.20
2022-08-08T19:33:11.469Z,23.12
2022-08-08T19:35:45.450Z,23.00
2022-08-08T19:38:02.814Z,22.93
2022-08-08T19:40:21.980Z,22.89
2022-08-08T19:42:49.060Z,22.81
2022-08-08T19:45:07.679Z,22.71
2022-08-08T19:47:34.154Z,22.70
2022-08-08T19:49:59.789Z,22.60
2022-08-08T19:52:18.413Z,22.51
2022-08-08T19:54:56.744Z,22.44
2022-08-08T19:57:17.879Z,22.29
2022-08-08T19:59:35.204Z,22.21
2022-08-08T20:02:03.040Z,22.20
2022-08-08T20:04:22.413Z,22.14
2022-08-08T20:06:41.744Z,22.12
2022-08-08T20:09:04.610Z,22.06
2022-08-08T20:11:26.180Z,22.02
2022-08-08T20:14:12.604Z,21.94
2022-08-08T20:16:23.166Z,21.89
2022-08-08T20:18:52.628Z,21.88
2022-08-08T20:21:14.420Z,21.85
2022-08-08T20:23:32.909Z,21.78
2022-08-08T20:25:52.623Z,21.72
2022-08-08T20:28:17.676Z,21.68
2022-08-08T20:30:52.900Z,21.62
2022-08-08T20:33:19.786Z,21.51
2022-08-08T20:35:56.821Z,21.49
2022-08-08T20:38:09.112Z,21.59
2022-08-08T20:40:39.074Z,21.54
2022-08-08T20:42:56.693Z,21.40
2022-08-08T20:45:14.692Z,21.38
2022-08-08T20:47:57.790Z,21.34
2022-08-08T20:50:18.582Z,21.31
2022-08-08T20:52:48.262Z,21.34
2022-08-08T20:55:07.599Z,21.37
2022-08-08T20:57:44.045Z,21.38
2022-08-08T21:00:04.805Z,21.37
2022-08-08T21:02:26.256Z,21.38
2022-08-08T21:04:47.699Z,21.40
2022-08-08T21:07:08.197Z,21.42
2022-08-08T21:09:31.663Z,21.37
2022-08-08T21:11:51.553Z,21.31
2022-08-08T21:14:10.813Z,21.28
2022-08-08T21:16:29.039Z,21.24
2022-08-08T21:18:46.648Z,21.18
2022-08-08T21:21:03.927Z,21.17
2022-08-08T21:23:25.245Z,21.16
2022-08-08T21:25:59.085Z,21.10
2022-08-08T21:28:33.652Z,21.01
2022-08-08T21:30:52.744Z,20.97
2022-08-08T21:33:11.791Z,20.94
2022-08-08T21:36:16.671Z,20.88
2022-08-08T21:38:15.999Z,20.85
2022-08-08T21:40:36.083Z,20.77
2022-08-08T21:42:53.451Z,20.67
2022-08-08T21:45:44.068Z,20.55
2022-08-08T21:48:00.948Z,20.48
2022-08-08T21:50:20.363Z,20.40
2022-08-08T21:54:32.271Z,20.35
2022-08-08T21:55:24.375Z,20.21
2022-08-08T21:58:05.510Z,20.09
2022-08-08T22:00:26.172Z,19.98
2022-08-08T22:02:44.301Z,19.89
2022-08-08T22:05:01.883Z,19.79
2022-08-08T22:07:20.972Z,19.69
2022-08-08T22:09:43.763Z,19.62
2022-08-08T22:12:08.873Z,19.56
2022-08-08T22:14:28.921Z,19.46
2022-08-08T22:16:46.185Z,19.43
2022-08-08T22:19:08.723Z,19.39
2022-08-08T22:21:34.668Z,19.34
2022-08-08T22:23:53.707Z,19.29
2022-08-08T22:26:26.795Z,19.28
2022-08-08T22:29:13.788Z,19.20
2022-08-08T22:31:29.509Z,19.17
2022-08-08T22:34:13.258Z,19.07
2022-08-08T22:36:34.224Z,18.97
2022-08-08T22:38:51.837Z,19.02
2022-08-08T22:41:15.988Z,18.92
2022-08-08T22:43:39.260Z,18.82
2022-08-08T22:46:15.184Z,18.77
2022-08-08T22:48:33.789Z,18.72
2022-08-08T22:50:51.107Z,18.60
2022-08-08T22:54:27.722Z,18.57
2022-08-08T22:55:58.291Z,18.54
2022-08-08T22:58:18.546Z,18.51
2022-08-08T23:00:37.956Z,18.49
2022-08-08T23:02:57.011Z,18.45
2022-08-08T23:05:17.839Z,18.46
2022-08-08T23:07:51.786Z,18.40
2022-08-08T23:10:19.424Z,18.33
2022-08-08T23:12:40.357Z,18.36
2022-08-08T23:15:10.769Z,18.31
2022-08-08T23:17:46.793Z,18.22
2022-08-08T23:20:11.958Z,18.18
2022-08-08T23:22:29.193Z,18.11
2022-08-08T23:24:47.948Z,18.08
2022-08-08T23:27:06.678Z,18.07
2022-08-08T23:29:23.730Z,18.00
2022-08-08T23:31:41.585Z,17.93
2022-08-08T23:34:16.544Z,18.01
2022-08-08T23:36:35.119Z,17.96
2022-08-08T23:38:54.323Z,17.93
2022-08-08T23:41:23.131Z,17.88
2022-08-08T23:43:45.502Z,17.94
2022-08-08T23:49:03.020Z,17.88
2022-08-08T23:49:03.736Z,17.86
2022-08-08T23:51:42.585Z,18.00
2022-08-08T23:54:39.532Z,18.00
2022-08-08T23:56:34.075Z,18.03
2022-08-08T23:58:51.538Z,18.05
